Bf Caroda — CQIL4 — position and weather

sailwx.info

Track history (hours):
 
Tides and Currents Weather Stations Pressure Air Temp Water Temp Dewpoint Dewpoint Depression Visibility Wind Speed Wind Dir Waves Ship Positions

Bf Caroda

Last reported at 2017-Oct-21 14:33 UTC. Time now 2017-Oct-22 15:44 UTC.
Position N 29°02' W 014°49'.

Length 134 m; draft 7.7 m.

Type: Ship. MMSI: 255805992.

Date/timePositionNaut miles runAvg speedWind from/ knotsBaromVisibWave heightAir tempDewpointWater temp
2017-Oct-21 14:33N 29°02' W 014°49'713.3
2017-Oct-21 14:00N 28°59' W 014°55'713.4
2017-Oct-21 13:30N 28°55' W 015°02'713.3
2017-Oct-21 13:00N 28°52' W 015°09'713.5
2017-Oct-21 12:30N 28°48' W 015°15'713.6
2017-Oct-21 12:00N 28°45' W 015°22'713.3
2017-Oct-21 11:30N 28°41' W 015°28'713.2
2017-Oct-21 11:00N 28°38' W 015°35'713.3
2017-Oct-21 10:30N 28°34' W 015°41'713.5
2017-Oct-21 10:00N 28°29' W 015°46'713.2
2017-Oct-21 09:30N 28°24' W 015°51'713.0
2017-Oct-21 09:00N 28°20' W 015°57'612.5
2017-Oct-21 08:30N 28°21' W 016°04'714.2
2017-Oct-21 08:00N 28°26' W 016°10'5 8.9
2017-Oct-21 07:29N 28°29' W 016°13'0 0.0
2017-Oct-21 06:52N 28°29' W 016°13'0 0.0
2017-Oct-21 06:22N 28°29' W 016°13'0 0.0
2017-Oct-21 05:49N 28°29' W 016°13'0 0.0
2017-Oct-21 05:28N 28°29' W 016°13'0 0.0
2017-Oct-21 04:57N 28°29' W 016°13'0 0.0
2017-Oct-21 04:18N 28°29' W 016°13'0 0.0
2017-Oct-21 03:51N 28°29' W 016°13'0 0.0
2017-Oct-21 03:30N 28°29' W 016°13'0 0.0
2017-Oct-21 02:47N 28°29' W 016°13'0 0.0
2017-Oct-21 02:11N 28°29' W 016°13'0 0.0
2017-Oct-21 01:56N 28°29' W 016°13'0 0.0
2017-Oct-21 01:23N 28°29' W 016°13'0 0.0
2017-Oct-21 00:46N 28°29' W 016°13'0 0.0
2017-Oct-21 00:16N 28°29' W 016°13'0 0.0
2017-Oct-20 23:58N 28°29' W 016°13'0 0.0
2017-Oct-20 23:22N 28°29' W 016°13'0 0.0
2017-Oct-20 22:49N 28°29' W 016°13'0 0.0
2017-Oct-20 21:57N 28°29' W 016°13'1 2.5
2017-Oct-20 21:30N 28°28' W 016°14'4 5.8
2017-Oct-20 20:52N 28°27' W 016°10'514.2
2017-Oct-20 20:30N 28°25' W 016°04'815.1
2017-Oct-20 20:00N 28°23' W 015°56'715.1
2017-Oct-20 19:31N 28°21' W 015°48'815.0
2017-Oct-20 19:01N 28°18' W 015°40'715.0
2017-Oct-20 18:31N 28°17' W 015°32'714.6
2017-Oct-20 18:00N 28°15' W 015°23'612.5
2017-Oct-20 17:31N 28°10' W 015°19'510.2
2017-Oct-20 17:00N 28°08' W 015°25'1 2.2
2017-Oct-20 16:28N 28°09' W 015°25'0 0.0
2017-Oct-20 15:51N 28°09' W 015°25'0 0.0
2017-Oct-20 15:18N 28°09' W 015°25'0 0.0
2017-Oct-20 15:00N 28°09' W 015°25'0 0.0
2017-Oct-20 13:56N 28°09' W 015°25'0 0.0
2017-Oct-20 13:17N 28°09' W 015°25'0 0.0
2017-Oct-20 12:59N 28°09' W 015°25'0 0.0
2017-Oct-20 12:29N 28°09' W 015°25'0 0.0
2017-Oct-20 11:59N 28°09' W 015°25'0 0.0
2017-Oct-20 11:10N 28°09' W 015°25'0 0.0
2017-Oct-20 10:49N 28°09' W 015°25'0 0.0
2017-Oct-20 10:28N 28°09' W 015°25'0 0.0
2017-Oct-20 09:55N 28°09' W 015°25'5 0.6
2017-Oct-20 01:27N 28°06' W 015°20'1 0.5
2017-Oct-19 22:16N 28°07' W 015°19'67613.6
2017-Oct-17 20:33N 35°58' W 005°47'714.9
2017-Oct-17 20:06N 35°58' W 005°38'114.5
2017-Oct-17 20:00N 35°58' W 005°37'713.6
2017-Oct-17 19:30N 36°00' W 005°29'712.4
2017-Oct-17 18:59N 36°05' W 005°23'4 0.2
2017-Oct-16 17:05N 36°08' W 005°26'1 3.9
2017-Oct-16 16:50N 36°09' W 005°25'2 6.7
2017-Oct-16 16:29N 36°07' W 005°24'510.0
2017-Oct-16 16:00N 36°05' W 005°18'8 7.2
2017-Oct-16 14:50N 36°06' W 005°08'412.9
2017-Oct-16 14:30N 36°05' W 005°13'1 0.0
2017-Oct-14 15:28N 36°05' W 005°11'714.5
2017-Oct-14 15:00N 36°05' W 005°20'612.1
2017-Oct-14 14:30N 36°09' W 005°25'6 0.2
2017-Oct-13 10:40N 36°04' W 005°21'12 3.2
2017-Oct-13 06:50N 36°06' W 005°06'0 0.5
2017-Oct-13 06:28N 36°06' W 005°06'0 0.9
2017-Oct-13 05:56N 36°06' W 005°05'612.9
2017-Oct-13 05:30N 36°04' W 005°12'815.1
2017-Oct-13 05:00N 36°03' W 005°21'612.3
2017-Oct-13 04:31N 35°58' W 005°26'1014.4
2017-Oct-13 03:51N 35°55' W 005°37'614.1
2017-Oct-13 03:24N 35°55' W 005°45'613.9
2017-Oct-13 02:58N 35°54' W 005°52'21714.4
2017-Oct-12 11:55N 33°21' W 009°00'715.0
2017-Oct-12 11:28N 33°16' W 009°05'715.2
2017-Oct-12 11:00N 33°09' W 009°09'815.0
2017-Oct-12 10:27N 33°02' W 009°14'1315.0
2017-Oct-12 09:37N 32°52' W 009°22'314.3
2017-Oct-12 09:25N 32°49' W 009°24'614.5
2017-Oct-12 09:00N 32°44' W 009°28'814.9
2017-Oct-12 08:29N 32°38' W 009°32'714.8
2017-Oct-12 08:00N 32°31' W 009°36'714.7
2017-Oct-12 07:30N 32°24' W 009°38'714.7
2017-Oct-12 07:01N 32°17' W 009°39'714.6
2017-Oct-12 06:30N 32°10' W 009°40'714.6
2017-Oct-12 06:00N 32°02' W 009°42'814.8
2017-Oct-12 05:30N 31°56' W 009°46'714.8
2017-Oct-12 05:01N 31°49' W 009°49'914.5
2017-Oct-12 04:24N 31°41' W 009°54'614.5
2017-Oct-12 04:00N 31°35' W 009°55'914.2
2017-Oct-12 03:22N 31°27' W 009°59'514.1
2017-Oct-12 03:00N 31°22' W 010°01'714.5
2017-Oct-12 02:30N 31°15' W 010°01'714.7
2017-Oct-12 02:00N 31°07' W 010°01'3613.7
2017-Oct-11 23:24N 30°32' W 009°54'614.4
2017-Oct-11 22:59N 30°29' W 009°48'914.2
2017-Oct-11 22:22N 30°24' W 009°40'2 5.1
2017-Oct-11 21:59N 30°26' W 009°39'  
Track history (hours):
 
Tides and Currents Weather Stations Pressure Air Temp Water Temp Dewpoint Dewpoint Depression Visibility Wind Speed Wind Dir Waves Ship Positions

Bf Caroda

Last reported at 2017-Oct-21 14:33 UTC. Time now 2017-Oct-22 15:44 UTC.
Position N 29°02' W 014°49'.

Length 134 m; draft 7.7 m.

Type: Ship. MMSI: 255805992.

Date/timePositionNaut miles runAvg speedWind from/ knotsBaromVisibWave heightAir tempDewpointWater temp
2017-Oct-21 14:33N 29°02' W 014°49'713.3
2017-Oct-21 14:00N 28°59' W 014°55'713.4
2017-Oct-21 13:30N 28°55' W 015°02'713.3
2017-Oct-21 13:00N 28°52' W 015°09'713.5
2017-Oct-21 12:30N 28°48' W 015°15'713.6
2017-Oct-21 12:00N 28°45' W 015°22'713.3
2017-Oct-21 11:30N 28°41' W 015°28'713.2
2017-Oct-21 11:00N 28°38' W 015°35'713.3
2017-Oct-21 10:30N 28°34' W 015°41'713.5
2017-Oct-21 10:00N 28°29' W 015°46'713.2
2017-Oct-21 09:30N 28°24' W 015°51'713.0
2017-Oct-21 09:00N 28°20' W 015°57'612.5
2017-Oct-21 08:30N 28°21' W 016°04'714.2
2017-Oct-21 08:00N 28°26' W 016°10'5 8.9
2017-Oct-21 07:29N 28°29' W 016°13'0 0.0
2017-Oct-21 06:52N 28°29' W 016°13'0 0.0
2017-Oct-21 06:22N 28°29' W 016°13'0 0.0
2017-Oct-21 05:49N 28°29' W 016°13'0 0.0
2017-Oct-21 05:28N 28°29' W 016°13'0 0.0
2017-Oct-21 04:57N 28°29' W 016°13'0 0.0
2017-Oct-21 04:18N 28°29' W 016°13'0 0.0
2017-Oct-21 03:51N 28°29' W 016°13'0 0.0
2017-Oct-21 03:30N 28°29' W 016°13'0 0.0
2017-Oct-21 02:47N 28°29' W 016°13'0 0.0
2017-Oct-21 02:11N 28°29' W 016°13'0 0.0
2017-Oct-21 01:56N 28°29' W 016°13'0 0.0
2017-Oct-21 01:23N 28°29' W 016°13'0 0.0
2017-Oct-21 00:46N 28°29' W 016°13'0 0.0
2017-Oct-21 00:16N 28°29' W 016°13'0 0.0
2017-Oct-20 23:58N 28°29' W 016°13'0 0.0
2017-Oct-20 23:22N 28°29' W 016°13'0 0.0
2017-Oct-20 22:49N 28°29' W 016°13'0 0.0
2017-Oct-20 21:57N 28°29' W 016°13'1 2.5
2017-Oct-20 21:30N 28°28' W 016°14'4 5.8
2017-Oct-20 20:52N 28°27' W 016°10'514.2
2017-Oct-20 20:30N 28°25' W 016°04'815.1
2017-Oct-20 20:00N 28°23' W 015°56'715.1
2017-Oct-20 19:31N 28°21' W 015°48'815.0
2017-Oct-20 19:01N 28°18' W 015°40'715.0
2017-Oct-20 18:31N 28°17' W 015°32'714.6
2017-Oct-20 18:00N 28°15' W 015°23'612.5
2017-Oct-20 17:31N 28°10' W 015°19'510.2
2017-Oct-20 17:00N 28°08' W 015°25'1 2.2
2017-Oct-20 16:28N 28°09' W 015°25'0 0.0
2017-Oct-20 15:51N 28°09' W 015°25'0 0.0
2017-Oct-20 15:18N 28°09' W 015°25'0 0.0
2017-Oct-20 15:00N 28°09' W 015°25'0 0.0
2017-Oct-20 13:56N 28°09' W 015°25'0 0.0
2017-Oct-20 13:17N 28°09' W 015°25'0 0.0
2017-Oct-20 12:59N 28°09' W 015°25'0 0.0
2017-Oct-20 12:29N 28°09' W 015°25'0 0.0
2017-Oct-20 11:59N 28°09' W 015°25'0 0.0
2017-Oct-20 11:10N 28°09' W 015°25'0 0.0
2017-Oct-20 10:49N 28°09' W 015°25'0 0.0
2017-Oct-20 10:28N 28°09' W 015°25'0 0.0
2017-Oct-20 09:55N 28°09' W 015°25'5 0.6
2017-Oct-20 01:27N 28°06' W 015°20'1 0.5
2017-Oct-19 22:16N 28°07' W 015°19'67613.6
2017-Oct-17 20:33N 35°58' W 005°47'714.9
2017-Oct-17 20:06N 35°58' W 005°38'114.5
2017-Oct-17 20:00N 35°58' W 005°37'713.6
2017-Oct-17 19:30N 36°00' W 005°29'712.4
2017-Oct-17 18:59N 36°05' W 005°23'4 0.2
2017-Oct-16 17:05N 36°08' W 005°26'1 3.9
2017-Oct-16 16:50N 36°09' W 005°25'2 6.7
2017-Oct-16 16:29N 36°07' W 005°24'510.0
2017-Oct-16 16:00N 36°05' W 005°18'8 7.2
2017-Oct-16 14:50N 36°06' W 005°08'412.9
2017-Oct-16 14:30N 36°05' W 005°13'1 0.0
2017-Oct-14 15:28N 36°05' W 005°11'714.5
2017-Oct-14 15:00N 36°05' W 005°20'612.1
2017-Oct-14 14:30N 36°09' W 005°25'6 0.2
2017-Oct-13 10:40N 36°04' W 005°21'12 3.2
2017-Oct-13 06:50N 36°06' W 005°06'0 0.5
2017-Oct-13 06:28N 36°06' W 005°06'0 0.9
2017-Oct-13 05:56N 36°06' W 005°05'612.9
2017-Oct-13 05:30N 36°04' W 005°12'815.1
2017-Oct-13 05:00N 36°03' W 005°21'612.3
2017-Oct-13 04:31N 35°58' W 005°26'1014.4
2017-Oct-13 03:51N 35°55' W 005°37'614.1
2017-Oct-13 03:24N 35°55' W 005°45'613.9
2017-Oct-13 02:58N 35°54' W 005°52'21714.4
2017-Oct-12 11:55N 33°21' W 009°00'715.0
2017-Oct-12 11:28N 33°16' W 009°05'715.2
2017-Oct-12 11:00N 33°09' W 009°09'815.0
2017-Oct-12 10:27N 33°02' W 009°14'1315.0
2017-Oct-12 09:37N 32°52' W 009°22'314.3
2017-Oct-12 09:25N 32°49' W 009°24'614.5
2017-Oct-12 09:00N 32°44' W 009°28'814.9
2017-Oct-12 08:29N 32°38' W 009°32'714.8
2017-Oct-12 08:00N 32°31' W 009°36'714.7
2017-Oct-12 07:30N 32°24' W 009°38'714.7
2017-Oct-12 07:01N 32°17' W 009°39'714.6
2017-Oct-12 06:30N 32°10' W 009°40'714.6
2017-Oct-12 06:00N 32°02' W 009°42'814.8
2017-Oct-12 05:30N 31°56' W 009°46'714.8
2017-Oct-12 05:01N 31°49' W 009°49'914.5
2017-Oct-12 04:24N 31°41' W 009°54'614.5
2017-Oct-12 04:00N 31°35' W 009°55'914.2
2017-Oct-12 03:22N 31°27' W 009°59'514.1
2017-Oct-12 03:00N 31°22' W 010°01'714.5
2017-Oct-12 02:30N 31°15' W 010°01'714.7
2017-Oct-12 02:00N 31°07' W 010°01'3613.7
2017-Oct-11 23:24N 30°32' W 009°54'614.4
2017-Oct-11 22:59N 30°29' W 009°48'914.2
2017-Oct-11 22:22N 30°24' W 009°40'2 5.1
2017-Oct-11 21:59N 30°26' W 009°39'  

Dump ship's entire track history